Share

Cozumel, Mexico

Cozumel International (MMCZ) Elev 16 ft | 20.52 °N, 86.93 °W | Change Station

Current weather conditions updated 17 minutes ago

Scattered Clouds
Scattered Clouds
79 °F
Feels Like 79 °F
N
15
Wind Variable Wind from NNE
Sunrise 6:25 AM
Sunset 7:08 PM
Moon Waning Gibbous

Today is forecast to be nearly the same temperature as yesterday.

Pressure 30.09 in
Visibility 7.0 miles
Clouds Scattered Clouds 1500 ft
Scattered Clouds 25000 ft
Dew Point 68 °F
Humidity 69%
Rainfall 0.00 in
Snow Depth Not available.
UV 10 out of 16
Pollen Not available.
Air Quality Not available.
Flu Activity Not available.
METAR MMCZ 201540Z 03013KT 7SM SCT015 SCT250 26/20 A3009 RMK 8/508 CU

More Conditions Fewer Conditions

Pressure 30.09 in
Visibility 7.0 miles
Clouds Scattered Clouds 1500 ft
Scattered Clouds 25000 ft
Dew Point 68 °F
Humidity 69%
Rainfall 0.00 in
Snow Depth Not available.
UV 10 out of 16
Pollen Not available.
Air Quality Not available.
Flu Activity Not available.
METAR MMCZ 201540Z 03013KT 7SM SCT015 SCT250 26/20 A3009 RMK 8/508 CU

More Conditions Fewer Conditions

10-Day Weather Forecast

Almanac

Astronomy

Apr. 20, 2014 Rise Set
Actual Time 6:25 AM CDT 7:08 PM CDT
Civil Twilight 6:02 AM CDT 7:30 PM CDT
Nautical Twilight 5:36 AM CDT 7:57 PM CDT
Astronomical Twilight 5:08 AM CDT 8:24 PM CDT
Moon No Moon Rise 11:00 AM CDT
Length of Visible Light 13h 28m
Length of Day
12h 42m
Tomorrow will be 1m 4s longer.
Waning Gibbous, 69% of the Moon is Illuminated
Today
Waning Gibbous
Apr 22
Last Quarter
Apr 29
New
May 6
First Quarter
May 14
Full

Today's Extremes

Country Highs Country Lows

Community

  • Easter Sunrise
    Easter Sunrise
  • Easter Eve - The Promise - Lake Palestine, TX
    Easter Eve - The Promise - Lake Palestine, TX
  • Happy Easter
    Happy Easter
  • EARLY FOGGY MORNING
    EARLY FOGGY MORNING
  • Easter Greetings
    Easter Greetings

WunderPhotos

Upload Photos

1,703,259 photos uploaded!

WunderBlogs® & News

Nearby

Snow Depth

Not available.

Coastal Water Temperatures

Place Temperature
No Stations Reporting

Earthquake Activity

City Distance Mag. Time & Date
No recent earthquake activity has been reported nearby.
Minimum magnitude displayed is 2.5.

Nearby Weather Stations

Station Location Temp. Heat Index Dew Point Humidity Wind Precip. Elev Updated Type
ASRCZM, Cozumel 82.3 °F 86 °F 69 °F 64% ENE  at  14.0 mph 0.00 in / hr 15 ft 10:55 AM CDT Normal
Hacienda Monte Cristo, Cozumel 80.2 °F 84 °F 71 °F 73% NE  at  13.0 mph 0.00 in / hr 60 ft 10:48 AM CDT Normal
Cozumel, Cozumel 82.6 °F 87 °F 70 °F 66% NNW  at  3.0 mph 0.00 in / hr 46 ft 10:52 AM CDT Normal

Show More Stations Show Fewer Stations

What do you think?

We're not finished. Please let us know what you like, what you don't like, and what you are still missing.